Flight Track Log - Related Links

Times and Time Zones

All times are in EDT time to prevent confusion due to time zone crossing. See the N904RB flight status page for this flight to view local times or setup timezone preferences in your user account.

Time Position Orientation Groundspeed Altitude Reporting Facility
EDT Latitude Longitude Course Direction KTS MPH feet Rate Location/Type
Thu 09:40:15 PM 40.5842 -95.8061 104° East 156 180 2,800  Level Minneapolis Center
Thu 09:41:16 PM 40.5669 -95.7756 127° Southeast 148 170 4,400 1,463 Climbing Minneapolis Center
Thu 09:42:18 PM 40.5419 -95.7339 128° Southeast 147 169 5,800 1,597 Climbing Minneapolis Center
Thu 09:43:20 PM 40.5142 -95.6769 123° Southeast 150 173 7,700 1,645 Climbing Minneapolis Center
Thu 09:44:22 PM 40.4919 -95.6267 120° Southeast 155 178 9,200 1,452 Climbing Minneapolis Center
Thu 09:45:24 PM 40.4692 -95.5753 120° Southeast 159 183 10,700 1,463 Climbing Minneapolis Center
Thu 09:46:25 PM 40.4442 -95.5239 123° Southeast 165 190 12,200 1,366 Climbing Minneapolis Center
Thu 09:47:27 PM 40.4194 -95.4686 120° Southeast 171 197 13,500 1,210 Climbing Minneapolis Center
Thu 09:48:29 PM 40.3922 -95.4114 122° Southeast 181 208 14,700 1,210 Climbing Minneapolis Center
Thu 09:49:31 PM 40.3639 -95.3497 121° Southeast 193 222 16,000 1,366 Climbing Minneapolis Center
Thu 09:50:32 PM 40.3283 -95.2739 122° Southeast 201 231 17,500 1,220 Climbing Minneapolis Center
Thu 09:51:34 PM 40.2986 -95.2106 122° Southeast 203 234 18,500 726 Climbing Minneapolis Center
Thu 09:52:36 PM 40.2653 -95.1431 123° Southeast 215 247 19,000 341 Climbing Minneapolis Center
Thu 09:53:02 PM 40.2506 -95.1214 132° Southeast 213 245 19,000  Level Kansas City Center
Thu 09:54:05 PM 40.2061 -95.0219 120° Southeast 276 318 19,000  Level Kansas City Center
Thu 09:55:07 PM 40.1681 -94.9428 122° Southeast 269 310 19,000  Level Kansas City Center
Thu 09:56:08 PM 40.1233 -94.8483 122° Southeast 273 314 19,000  Level Kansas City Center
Thu 09:57:11 PM 40.0850 -94.7656 121° Southeast 276 318 19,000  Level Kansas City Center
Thu 09:58:13 PM 40.0389 -94.6731 123° Southeast 272 313 19,000  Level Kansas City Center
Thu 09:59:13 PM 39.9994 -94.5922 122° Southeast 274 315 19,000  Level Kansas City Center
Thu 10:00:14 PM 39.9606 -94.5097 122° Southeast 277 319 19,000  Level Kansas City Center
Thu 10:01:16 PM 39.9150 -94.4142 122° Southeast 277 319 19,000  Level Kansas City Center
Thu 10:02:16 PM 39.8761 -94.3342 122° Southeast 275 316 19,000  Level Kansas City Center
Thu 10:03:20 PM 39.8300 -94.2397 122° Southeast 276 318 19,000  Level Kansas City Center
Thu 10:04:20 PM 39.7903 -94.1569 122° Southeast 280 322 19,000  Level Kansas City Center
Thu 10:05:21 PM 39.7514 -94.0758 122° Southeast 277 319 19,000  Level Kansas City Center
Thu 10:06:24 PM 39.7047 -93.9819 123° Southeast 277 319 19,000  Level Kansas City Center
Thu 10:07:26 PM 39.6650 -93.9006 122° Southeast 277 319 19,000  Level Kansas City Center
Thu 10:08:27 PM 39.6194 -93.8078 122° Southeast 274 315 19,000  Level Kansas City Center
Thu 10:09:28 PM 39.5844 -93.7344 122° Southeast 276 318 19,000  Level Kansas City Center
Thu 10:10:31 PM 39.5450 -93.6528 122° Southeast 274 315 19,000  Level Kansas City Center
Thu 10:11:32 PM 39.4953 -93.5531 123° Southeast 276 318 19,000  Level Kansas City Center
Thu 10:12:33 PM 39.4528 -93.4692 123° Southeast 280 322 19,000  Level Kansas City Center
Thu 10:13:34 PM 39.4125 -93.3875 123° Southeast 279 321 19,000  Level Kansas City Center
Thu 10:14:35 PM 39.3719 -93.3056 123° Southeast 274 315 19,000  Level Kansas City Center
Thu 10:15:39 PM 39.3319 -93.2286 124° Southeast 265 305 19,000 -432 Level Kansas City Center
Thu 10:16:40 PM 39.2861 -93.1367 123° Southeast 259 298 18,100 -1,328 Descending Kansas City Center
Thu 10:17:41 PM 39.2431 -93.0508 123° Southeast 279 321 16,300 -1,355 Descending Kansas City Center
Thu 10:18:44 PM 39.1994 -92.9628 123° Southeast 291 335 15,300 -1,122 Descending Kansas City Center
Thu 10:19:44 PM 39.1606 -92.8889 124° Southeast 267 307 14,000 -1,240 Descending Kansas City Center
Thu 10:20:45 PM 39.1231 -92.8119 122° Southeast 260 299 12,800 -1,230 Descending Kansas City Center
Thu 10:21:46 PM 39.0833 -92.7406 126° Southeast 256 295 11,500 -1,296 Descending Kansas City Center
Thu 10:22:50 PM 39.0361 -92.6503 124° Southeast 250 288 10,100 -1,403 Descending Kansas City Center
Thu 10:23:50 PM 38.9953 -92.5767 126° Southeast 251 289 8,600 -1,438 Descending Kansas City Center
Thu 10:24:51 PM 38.9531 -92.5025 126° Southeast 256 295 7,200 -1,344 Descending Kansas City Center
Thu 10:25:55 PM 38.9053 -92.4378 133° Southeast 253 291 5,800 -1,152 Descending Kansas City Center
Thu 10:26:56 PM 38.8625 -92.3814 134° Southeast 232 267 4,800 -934 Descending Kansas City Center
Thu 10:27:57 PM 38.8256 -92.3322 134° Southeast 212 244 3,900 -732 Descending Kansas City Center
Thu 10:28:59 PM 38.8108 -92.2750 108° East 185 213 3,300 -738 Descending Kansas City Center
Thu 10:29:59 PM 38.8078 -92.2144 94° East 175 201 2,400 -780 Descending Kansas City Center
Thu 10:31:02 PM 38.8347 -92.1886 37° Northeast 167 192 1,700 -629 Descending Kansas City Center
Thu 10:32:03 PM 38.8178 -92.2111 226° Southwest 158 182 1,100 -590 Descending Kansas City Center
Thu 10:34:00 PM 38.8167 -92.2167 237° Southwest  Level FlightAware Approximate

Login

Don't have an account? Register now (free) for customized features, flight alerts, and more!